sensor_id;sensor_type;location;lat;lon;timestamp;P1;durP1;ratioP1;P2;durP2;ratioP2
13981;SDS011;7065;50.880;5.502;2024-01-06T00:00:36;31.60;;;19.17;;
13981;SDS011;7065;50.880;5.502;2024-01-06T00:03:02;29.10;;;17.45;;
13981;SDS011;7065;50.880;5.502;2024-01-06T00:05:27;29.55;;;18.25;;
13981;SDS011;7065;50.880;5.502;2024-01-06T00:07:53;28.15;;;16.65;;
13981;SDS011;7065;50.880;5.502;2024-01-06T00:10:19;30.70;;;14.63;;
13981;SDS011;7065;50.880;5.502;2024-01-06T00:12:45;25.00;;;13.55;;
13981;SDS011;7065;50.880;5.502;2024-01-06T00:15:10;20.45;;;12.13;;
13981;SDS011;7065;50.880;5.502;2024-01-06T00:17:36;21.42;;;11.25;;
13981;SDS011;7065;50.880;5.502;2024-01-06T00:20:02;22.52;;;10.82;;
13981;SDS011;7065;50.880;5.502;2024-01-06T00:22:29;21.73;;;9.98;;
13981;SDS011;7065;50.880;5.502;2024-01-06T00:24:55;15.65;;;9.50;;
13981;SDS011;7065;50.880;5.502;2024-01-06T00:27:21;20.23;;;10.65;;
13981;SDS011;7065;50.880;5.502;2024-01-06T00:29:47;17.27;;;9.43;;
13981;SDS011;7065;50.880;5.502;2024-01-06T00:32:12;18.90;;;9.15;;
13981;SDS011;7065;50.880;5.502;2024-01-06T00:34:38;14.57;;;8.95;;
13981;SDS011;7065;50.880;5.502;2024-01-06T00:37:04;18.25;;;9.48;;
13981;SDS011;7065;50.880;5.502;2024-01-06T00:39:30;19.50;;;12.48;;
13981;SDS011;7065;50.880;5.502;2024-01-06T00:41:56;22.50;;;12.55;;
13981;SDS011;7065;50.880;5.502;2024-01-06T00:44:22;22.45;;;12.48;;
13981;SDS011;7065;50.880;5.502;2024-01-06T00:46:47;23.05;;;14.00;;
13981;SDS011;7065;50.880;5.502;2024-01-06T00:49:13;23.08;;;13.57;;
13981;SDS011;7065;50.880;5.502;2024-01-06T00:51:39;22.85;;;11.77;;
13981;SDS011;7065;50.880;5.502;2024-01-06T00:54:04;17.92;;;11.10;;
13981;SDS011;7065;50.880;5.502;2024-01-06T00:56:30;22.95;;;10.88;;
13981;SDS011;7065;50.880;5.502;2024-01-06T00:58:56;21.48;;;11.52;;
13981;SDS011;7065;50.880;5.502;2024-01-06T01:01:21;24.02;;;12.32;;
13981;SDS011;7065;50.880;5.502;2024-01-06T01:03:47;19.42;;;12.50;;
13981;SDS011;7065;50.880;5.502;2024-01-06T01:06:13;21.08;;;12.38;;
13981;SDS011;7065;50.880;5.502;2024-01-06T01:08:39;24.90;;;12.85;;
13981;SDS011;7065;50.880;5.502;2024-01-06T01:11:05;24.15;;;12.88;;
13981;SDS011;7065;50.880;5.502;2024-01-06T01:13:31;19.13;;;11.70;;
13981;SDS011;7065;50.880;5.502;2024-01-06T01:15:57;23.10;;;12.93;;
13981;SDS011;7065;50.880;5.502;2024-01-06T01:18:22;20.48;;;11.50;;
13981;SDS011;7065;50.880;5.502;2024-01-06T01:20:48;24.13;;;13.00;;
13981;SDS011;7065;50.880;5.502;2024-01-06T01:23:14;23.70;;;12.35;;
13981;SDS011;7065;50.880;5.502;2024-01-06T01:25:39;26.08;;;12.80;;
13981;SDS011;7065;50.880;5.502;2024-01-06T01:28:05;27.27;;;12.18;;
13981;SDS011;7065;50.880;5.502;2024-01-06T01:30:31;22.15;;;12.05;;
13981;SDS011;7065;50.880;5.502;2024-01-06T01:32:57;22.52;;;10.70;;
13981;SDS011;7065;50.880;5.502;2024-01-06T01:35:23;23.35;;;11.68;;
13981;SDS011;7065;50.880;5.502;2024-01-06T01:37:49;22.52;;;11.45;;
13981;SDS011;7065;50.880;5.502;2024-01-06T01:40:15;18.02;;;10.77;;
13981;SDS011;7065;50.880;5.502;2024-01-06T01:42:41;16.73;;;9.95;;
13981;SDS011;7065;50.880;5.502;2024-01-06T01:45:08;15.95;;;9.07;;
13981;SDS011;7065;50.880;5.502;2024-01-06T01:47:34;13.95;;;9.20;;
13981;SDS011;7065;50.880;5.502;2024-01-06T01:50:00;15.18;;;9.32;;
13981;SDS011;7065;50.880;5.502;2024-01-06T01:52:26;16.35;;;10.07;;
13981;SDS011;7065;50.880;5.502;2024-01-06T01:54:52;18.67;;;10.30;;
13981;SDS011;7065;50.880;5.502;2024-01-06T01:57:19;18.88;;;9.65;;
13981;SDS011;7065;50.880;5.502;2024-01-06T01:59:46;14.07;;;8.50;;
13981;SDS011;7065;50.880;5.502;2024-01-06T02:02:12;15.80;;;9.55;;
13981;SDS011;7065;50.880;5.502;2024-01-06T02:04:39;15.82;;;8.95;;
13981;SDS011;7065;50.880;5.502;2024-01-06T02:07:04;20.13;;;9.15;;
13981;SDS011;7065;50.880;5.502;2024-01-06T02:09:30;14.85;;;8.65;;
13981;SDS011;7065;50.880;5.502;2024-01-06T02:11:59;16.50;;;9.50;;
13981;SDS011;7065;50.880;5.502;2024-01-06T02:14:24;13.82;;;9.77;;
13981;SDS011;7065;50.880;5.502;2024-01-06T02:16:50;17.60;;;9.40;;
13981;SDS011;7065;50.880;5.502;2024-01-06T02:19:16;13.77;;;9.07;;
13981;SDS011;7065;50.880;5.502;2024-01-06T02:21:48;15.70;;;8.75;;
13981;SDS011;7065;50.880;5.502;2024-01-06T02:24:17;15.55;;;9.13;;
13981;SDS011;7065;50.880;5.502;2024-01-06T02:26:43;14.10;;;7.53;;
13981;SDS011;7065;50.880;5.502;2024-01-06T02:29:09;13.45;;;7.80;;
13981;SDS011;7065;50.880;5.502;2024-01-06T02:31:34;11.55;;;8.00;;
13981;SDS011;7065;50.880;5.502;2024-01-06T02:34:00;13.45;;;9.05;;
13981;SDS011;7065;50.880;5.502;2024-01-06T02:36:26;11.30;;;8.65;;
13981;SDS011;7065;50.880;5.502;2024-01-06T02:38:52;11.90;;;9.00;;
13981;SDS011;7065;50.880;5.502;2024-01-06T02:41:18;14.68;;;9.02;;
13981;SDS011;7065;50.880;5.502;2024-01-06T02:43:44;16.27;;;8.70;;
13981;SDS011;7065;50.880;5.502;2024-01-06T02:46:10;14.70;;;10.00;;
13981;SDS011;7065;50.880;5.502;2024-01-06T02:48:35;14.05;;;9.23;;
13981;SDS011;7065;50.880;5.502;2024-01-06T02:51:01;15.38;;;11.63;;
13981;SDS011;7065;50.880;5.502;2024-01-06T02:53:27;15.65;;;10.30;;
13981;SDS011;7065;50.880;5.502;2024-01-06T02:55:52;16.20;;;10.52;;
13981;SDS011;7065;50.880;5.502;2024-01-06T02:58:18;15.90;;;10.70;;
13981;SDS011;7065;50.880;5.502;2024-01-06T03:00:44;17.33;;;10.65;;
13981;SDS011;7065;50.880;5.502;2024-01-06T03:03:10;17.45;;;10.57;;
13981;SDS011;7065;50.880;5.502;2024-01-06T03:05:36;18.27;;;10.80;;
13981;SDS011;7065;50.880;5.502;2024-01-06T03:08:02;16.90;;;10.88;;
13981;SDS011;7065;50.880;5.502;2024-01-06T03:10:29;16.13;;;11.13;;
13981;SDS011;7065;50.880;5.502;2024-01-06T03:12:54;15.18;;;10.45;;
13981;SDS011;7065;50.880;5.502;2024-01-06T03:15:20;17.23;;;11.70;;
13981;SDS011;7065;50.880;5.502;2024-01-06T03:17:45;15.73;;;10.77;;
13981;SDS011;7065;50.880;5.502;2024-01-06T03:20:11;17.33;;;11.70;;
13981;SDS011;7065;50.880;5.502;2024-01-06T03:22:37;19.38;;;13.10;;
13981;SDS011;7065;50.880;5.502;2024-01-06T03:25:03;26.05;;;14.93;;
13981;SDS011;7065;50.880;5.502;2024-01-06T03:27:29;26.52;;;16.42;;
13981;SDS011;7065;50.880;5.502;2024-01-06T03:29:55;30.50;;;15.45;;
13981;SDS011;7065;50.880;5.502;2024-01-06T03:32:21;31.88;;;17.05;;
13981;SDS011;7065;50.880;5.502;2024-01-06T03:34:47;28.38;;;16.17;;
13981;SDS011;7065;50.880;5.502;2024-01-06T03:37:12;28.75;;;16.02;;
13981;SDS011;7065;50.880;5.502;2024-01-06T03:39:38;26.65;;;14.23;;
13981;SDS011;7065;50.880;5.502;2024-01-06T03:42:04;24.85;;;13.98;;
13981;SDS011;7065;50.880;5.502;2024-01-06T03:44:30;25.52;;;14.35;;
13981;SDS011;7065;50.880;5.502;2024-01-06T03:46:58;24.70;;;13.90;;
13981;SDS011;7065;50.880;5.502;2024-01-06T03:49:24;24.15;;;12.30;;
13981;SDS011;7065;50.880;5.502;2024-01-06T03:51:50;23.20;;;13.95;;
13981;SDS011;7065;50.880;5.502;2024-01-06T03:54:16;23.75;;;12.80;;
13981;SDS011;7065;50.880;5.502;2024-01-06T03:56:42;23.42;;;12.68;;
13981;SDS011;7065;50.880;5.502;2024-01-06T03:59:08;24.77;;;13.95;;
13981;SDS011;7065;50.880;5.502;2024-01-06T04:01:34;25.65;;;14.38;;
13981;SDS011;7065;50.880;5.502;2024-01-06T04:04:04;24.33;;;14.25;;
13981;SDS011;7065;50.880;5.502;2024-01-06T04:06:30;28.83;;;14.05;;
13981;SDS011;7065;50.880;5.502;2024-01-06T04:08:59;22.98;;;14.40;;
13981;SDS011;7065;50.880;5.502;2024-01-06T04:11:25;26.40;;;14.65;;
13981;SDS011;7065;50.880;5.502;2024-01-06T04:13:51;25.83;;;14.27;;
13981;SDS011;7065;50.880;5.502;2024-01-06T04:16:17;25.23;;;14.45;;
13981;SDS011;7065;50.880;5.502;2024-01-06T04:18:42;30.58;;;16.92;;
13981;SDS011;7065;50.880;5.502;2024-01-06T04:21:08;26.48;;;16.55;;
13981;SDS011;7065;50.880;5.502;2024-01-06T04:23:34;28.25;;;17.02;;
13981;SDS011;7065;50.880;5.502;2024-01-06T04:26:00;24.70;;;16.40;;
13981;SDS011;7065;50.880;5.502;2024-01-06T04:28:26;27.45;;;17.60;;
13981;SDS011;7065;50.880;5.502;2024-01-06T04:30:52;28.90;;;17.63;;
13981;SDS011;7065;50.880;5.502;2024-01-06T04:33:18;31.17;;;17.45;;
13981;SDS011;7065;50.880;5.502;2024-01-06T04:35:44;28.33;;;17.38;;
13981;SDS011;7065;50.880;5.502;2024-01-06T04:38:10;28.17;;;17.65;;
13981;SDS011;7065;50.880;5.502;2024-01-06T04:40:36;26.20;;;16.98;;
13981;SDS011;7065;50.880;5.502;2024-01-06T04:43:01;26.38;;;16.95;;
13981;SDS011;7065;50.880;5.502;2024-01-06T04:45:28;22.65;;;16.02;;
13981;SDS011;7065;50.880;5.502;2024-01-06T04:47:54;28.63;;;17.30;;
13981;SDS011;7065;50.880;5.502;2024-01-06T04:50:20;24.27;;;16.00;;
13981;SDS011;7065;50.880;5.502;2024-01-06T04:52:45;25.55;;;16.23;;
13981;SDS011;7065;50.880;5.502;2024-01-06T04:55:11;24.23;;;16.35;;
13981;SDS011;7065;50.880;5.502;2024-01-06T04:57:37;24.58;;;16.30;;
13981;SDS011;7065;50.880;5.502;2024-01-06T05:00:03;22.75;;;16.88;;
13981;SDS011;7065;50.880;5.502;2024-01-06T05:02:29;27.38;;;16.80;;
13981;SDS011;7065;50.880;5.502;2024-01-06T05:04:55;22.23;;;16.20;;
13981;SDS011;7065;50.880;5.502;2024-01-06T05:07:21;23.65;;;16.52;;
13981;SDS011;7065;50.880;5.502;2024-01-06T05:09:47;21.67;;;16.00;;
13981;SDS011;7065;50.880;5.502;2024-01-06T05:12:13;22.17;;;16.08;;
13981;SDS011;7065;50.880;5.502;2024-01-06T05:14:38;21.67;;;15.80;;
13981;SDS011;7065;50.880;5.502;2024-01-06T05:17:04;23.92;;;16.73;;
13981;SDS011;7065;50.880;5.502;2024-01-06T05:19:30;23.23;;;16.50;;
13981;SDS011;7065;50.880;5.502;2024-01-06T05:21:56;22.10;;;16.83;;
13981;SDS011;7065;50.880;5.502;2024-01-06T05:24:22;25.70;;;17.60;;
13981;SDS011;7065;50.880;5.502;2024-01-06T05:26:48;24.30;;;17.00;;
13981;SDS011;7065;50.880;5.502;2024-01-06T05:29:14;22.08;;;16.35;;
13981;SDS011;7065;50.880;5.502;2024-01-06T05:31:40;22.35;;;17.50;;
13981;SDS011;7065;50.880;5.502;2024-01-06T05:34:05;21.55;;;16.70;;
13981;SDS011;7065;50.880;5.502;2024-01-06T05:36:31;22.17;;;16.40;;
13981;SDS011;7065;50.880;5.502;2024-01-06T05:38:57;21.85;;;16.00;;
13981;SDS011;7065;50.880;5.502;2024-01-06T05:41:23;20.95;;;15.75;;
13981;SDS011;7065;50.880;5.502;2024-01-06T05:43:49;21.48;;;15.05;;
13981;SDS011;7065;50.880;5.502;2024-01-06T05:46:23;21.02;;;16.33;;
13981;SDS011;7065;50.880;5.502;2024-01-06T05:48:49;22.35;;;17.48;;
13981;SDS011;7065;50.880;5.502;2024-01-06T05:51:15;22.13;;;17.50;;
13981;SDS011;7065;50.880;5.502;2024-01-06T05:53:40;22.95;;;17.85;;
13981;SDS011;7065;50.880;5.502;2024-01-06T05:56:07;21.60;;;17.23;;
13981;SDS011;7065;50.880;5.502;2024-01-06T05:58:34;22.13;;;16.58;;
13981;SDS011;7065;50.880;5.502;2024-01-06T06:01:00;21.70;;;16.98;;
13981;SDS011;7065;50.880;5.502;2024-01-06T06:03:25;22.77;;;17.63;;
13981;SDS011;7065;50.880;5.502;2024-01-06T06:05:51;23.80;;;16.27;;
13981;SDS011;7065;50.880;5.502;2024-01-06T06:08:17;21.98;;;17.42;;
13981;SDS011;7065;50.880;5.502;2024-01-06T06:10:43;23.52;;;17.45;;
13981;SDS011;7065;50.880;5.502;2024-01-06T06:13:26;19.80;;;16.05;;
13981;SDS011;7065;50.880;5.502;2024-01-06T06:15:52;19.90;;;15.07;;
13981;SDS011;7065;50.880;5.502;2024-01-06T06:18:17;18.98;;;15.10;;
13981;SDS011;7065;50.880;5.502;2024-01-06T06:20:43;17.05;;;13.95;;
13981;SDS011;7065;50.880;5.502;2024-01-06T06:23:09;19.90;;;14.93;;
13981;SDS011;7065;50.880;5.502;2024-01-06T06:25:37;16.33;;;12.80;;
13981;SDS011;7065;50.880;5.502;2024-01-06T06:28:03;15.35;;;13.02;;
13981;SDS011;7065;50.880;5.502;2024-01-06T06:30:29;14.82;;;10.98;;
13981;SDS011;7065;50.880;5.502;2024-01-06T06:32:55;16.63;;;11.43;;
13981;SDS011;7065;50.880;5.502;2024-01-06T06:35:21;14.15;;;10.93;;
13981;SDS011;7065;50.880;5.502;2024-01-06T06:37:48;13.02;;;10.82;;
13981;SDS011;7065;50.880;5.502;2024-01-06T06:40:14;14.52;;;11.60;;
13981;SDS011;7065;50.880;5.502;2024-01-06T06:42:40;15.30;;;12.07;;
13981;SDS011;7065;50.880;5.502;2024-01-06T06:45:06;14.90;;;11.35;;
13981;SDS011;7065;50.880;5.502;2024-01-06T06:47:32;15.77;;;12.30;;
13981;SDS011;7065;50.880;5.502;2024-01-06T06:49:57;12.55;;;10.82;;
13981;SDS011;7065;50.880;5.502;2024-01-06T06:52:23;13.95;;;11.68;;
13981;SDS011;7065;50.880;5.502;2024-01-06T06:54:49;14.05;;;11.32;;
13981;SDS011;7065;50.880;5.502;2024-01-06T06:57:15;15.68;;;12.38;;
13981;SDS011;7065;50.880;5.502;2024-01-06T06:59:40;14.75;;;11.52;;
13981;SDS011;7065;50.880;5.502;2024-01-06T07:02:06;16.50;;;11.02;;
13981;SDS011;7065;50.880;5.502;2024-01-06T07:04:33;13.77;;;11.02;;
13981;SDS011;7065;50.880;5.502;2024-01-06T07:06:58;17.02;;;12.65;;
13981;SDS011;7065;50.880;5.502;2024-01-06T07:09:24;16.90;;;11.95;;
13981;SDS011;7065;50.880;5.502;2024-01-06T07:11:49;14.20;;;11.88;;
13981;SDS011;7065;50.880;5.502;2024-01-06T07:14:15;15.15;;;11.82;;
13981;SDS011;7065;50.880;5.502;2024-01-06T07:16:41;16.92;;;13.55;;
13981;SDS011;7065;50.880;5.502;2024-01-06T07:19:08;15.60;;;12.65;;
13981;SDS011;7065;50.880;5.502;2024-01-06T07:21:33;18.95;;;13.02;;
13981;SDS011;7065;50.880;5.502;2024-01-06T07:23:59;19.90;;;14.20;;
13981;SDS011;7065;50.880;5.502;2024-01-06T07:26:26;20.92;;;14.05;;
13981;SDS011;7065;50.880;5.502;2024-01-06T07:28:52;19.63;;;14.23;;
13981;SDS011;7065;50.880;5.502;2024-01-06T07:31:18;17.10;;;13.93;;
13981;SDS011;7065;50.880;5.502;2024-01-06T07:33:43;19.27;;;14.95;;
13981;SDS011;7065;50.880;5.502;2024-01-06T07:36:09;17.45;;;15.15;;
13981;SDS011;7065;50.880;5.502;2024-01-06T07:38:35;19.80;;;14.73;;
13981;SDS011;7065;50.880;5.502;2024-01-06T07:41:01;17.70;;;13.80;;
13981;SDS011;7065;50.880;5.502;2024-01-06T07:43:29;18.70;;;13.88;;
13981;SDS011;7065;50.880;5.502;2024-01-06T07:45:56;20.30;;;14.73;;
13981;SDS011;7065;50.880;5.502;2024-01-06T07:48:21;20.77;;;15.07;;
13981;SDS011;7065;50.880;5.502;2024-01-06T07:50:47;20.30;;;14.63;;
13981;SDS011;7065;50.880;5.502;2024-01-06T07:53:13;20.38;;;14.43;;
13981;SDS011;7065;50.880;5.502;2024-01-06T07:55:42;21.48;;;14.13;;
13981;SDS011;7065;50.880;5.502;2024-01-06T07:58:07;20.48;;;14.68;;
13981;SDS011;7065;50.880;5.502;2024-01-06T08:00:33;21.80;;;15.52;;
13981;SDS011;7065;50.880;5.502;2024-01-06T08:02:59;19.55;;;15.07;;
13981;SDS011;7065;50.880;5.502;2024-01-06T08:05:25;23.35;;;15.98;;
13981;SDS011;7065;50.880;5.502;2024-01-06T08:07:51;21.75;;;14.07;;
13981;SDS011;7065;50.880;5.502;2024-01-06T08:10:17;19.05;;;14.02;;
13981;SDS011;7065;50.880;5.502;2024-01-06T08:12:43;23.02;;;14.52;;
13981;SDS011;7065;50.880;5.502;2024-01-06T08:15:09;21.38;;;14.63;;
13981;SDS011;7065;50.880;5.502;2024-01-06T08:17:35;21.85;;;13.90;;
13981;SDS011;7065;50.880;5.502;2024-01-06T08:20:01;19.80;;;14.20;;
13981;SDS011;7065;50.880;5.502;2024-01-06T08:22:28;21.05;;;14.48;;
13981;SDS011;7065;50.880;5.502;2024-01-06T08:24:54;20.77;;;14.77;;
13981;SDS011;7065;50.880;5.502;2024-01-06T08:27:19;23.92;;;16.52;;
13981;SDS011;7065;50.880;5.502;2024-01-06T08:29:46;23.13;;;16.30;;
13981;SDS011;7065;50.880;5.502;2024-01-06T08:32:12;23.27;;;16.35;;
13981;SDS011;7065;50.880;5.502;2024-01-06T08:34:39;24.08;;;16.50;;
13981;SDS011;7065;50.880;5.502;2024-01-06T08:37:06;24.05;;;16.08;;
13981;SDS011;7065;50.880;5.502;2024-01-06T08:39:32;22.77;;;16.15;;
13981;SDS011;7065;50.880;5.502;2024-01-06T08:41:57;23.13;;;15.10;;
13981;SDS011;7065;50.880;5.502;2024-01-06T08:44:23;24.02;;;17.35;;
13981;SDS011;7065;50.880;5.502;2024-01-06T08:46:49;21.55;;;15.25;;
13981;SDS011;7065;50.880;5.502;2024-01-06T08:49:15;23.60;;;15.93;;
13981;SDS011;7065;50.880;5.502;2024-01-06T08:51:41;24.10;;;15.40;;
13981;SDS011;7065;50.880;5.502;2024-01-06T08:54:07;23.23;;;15.98;;
13981;SDS011;7065;50.880;5.502;2024-01-06T08:56:33;22.42;;;15.10;;
13981;SDS011;7065;50.880;5.502;2024-01-06T08:58:59;23.08;;;15.50;;
13981;SDS011;7065;50.880;5.502;2024-01-06T09:01:25;24.92;;;16.75;;
13981;SDS011;7065;50.880;5.502;2024-01-06T09:03:50;22.15;;;16.15;;
13981;SDS011;7065;50.880;5.502;2024-01-06T09:06:17;23.08;;;16.08;;
13981;SDS011;7065;50.880;5.502;2024-01-06T09:08:42;23.67;;;15.13;;
13981;SDS011;7065;50.880;5.502;2024-01-06T09:11:08;25.20;;;16.27;;
13981;SDS011;7065;50.880;5.502;2024-01-06T09:13:34;23.67;;;16.60;;
13981;SDS011;7065;50.880;5.502;2024-01-06T09:15:59;23.30;;;16.50;;
13981;SDS011;7065;50.880;5.502;2024-01-06T09:18:28;22.90;;;16.17;;
13981;SDS011;7065;50.880;5.502;2024-01-06T09:20:54;24.50;;;16.23;;
13981;SDS011;7065;50.880;5.502;2024-01-06T09:23:19;24.08;;;16.35;;
13981;SDS011;7065;50.880;5.502;2024-01-06T09:25:46;22.25;;;15.75;;
13981;SDS011;7065;50.880;5.502;2024-01-06T09:28:15;21.83;;;16.35;;
13981;SDS011;7065;50.880;5.502;2024-01-06T09:30:40;22.45;;;15.77;;
13981;SDS011;7065;50.880;5.502;2024-01-06T09:33:06;24.48;;;16.52;;
13981;SDS011;7065;50.880;5.502;2024-01-06T09:35:33;23.38;;;16.65;;
13981;SDS011;7065;50.880;5.502;2024-01-06T09:37:59;23.40;;;17.23;;
13981;SDS011;7065;50.880;5.502;2024-01-06T09:40:24;22.65;;;16.83;;
13981;SDS011;7065;50.880;5.502;2024-01-06T09:42:50;23.92;;;16.48;;
13981;SDS011;7065;50.880;5.502;2024-01-06T09:45:17;22.65;;;15.90;;
13981;SDS011;7065;50.880;5.502;2024-01-06T09:47:44;20.40;;;15.55;;
13981;SDS011;7065;50.880;5.502;2024-01-06T09:50:14;20.58;;;14.27;;
13981;SDS011;7065;50.880;5.502;2024-01-06T09:52:45;16.63;;;12.63;;
13981;SDS011;7065;50.880;5.502;2024-01-06T09:55:17;15.07;;;11.88;;
13981;SDS011;7065;50.880;5.502;2024-01-06T09:57:46;16.98;;;12.93;;
13981;SDS011;7065;50.880;5.502;2024-01-06T10:00:12;17.10;;;11.93;;
13981;SDS011;7065;50.880;5.502;2024-01-06T10:02:38;13.88;;;10.25;;
13981;SDS011;7065;50.880;5.502;2024-01-06T10:05:05;15.75;;;10.73;;
13981;SDS011;7065;50.880;5.502;2024-01-06T10:07:31;15.15;;;10.45;;
13981;SDS011;7065;50.880;5.502;2024-01-06T10:09:58;14.70;;;9.88;;
13981;SDS011;7065;50.880;5.502;2024-01-06T10:12:26;13.05;;;9.07;;
13981;SDS011;7065;50.880;5.502;2024-01-06T10:14:53;13.50;;;10.32;;
13981;SDS011;7065;50.880;5.502;2024-01-06T10:17:19;13.63;;;9.40;;
13981;SDS011;7065;50.880;5.502;2024-01-06T10:19:45;14.10;;;9.75;;
13981;SDS011;7065;50.880;5.502;2024-01-06T10:22:12;12.52;;;9.15;;
13981;SDS011;7065;50.880;5.502;2024-01-06T10:24:38;11.90;;;8.80;;
13981;SDS011;7065;50.880;5.502;2024-01-06T10:27:04;13.35;;;8.73;;
13981;SDS011;7065;50.880;5.502;2024-01-06T10:29:31;11.05;;;8.25;;
13981;SDS011;7065;50.880;5.502;2024-01-06T10:31:57;10.63;;;8.18;;
13981;SDS011;7065;50.880;5.502;2024-01-06T10:34:23;9.18;;;6.80;;
13981;SDS011;7065;50.880;5.502;2024-01-06T10:36:50;11.55;;;7.22;;
13981;SDS011;7065;50.880;5.502;2024-01-06T10:39:19;10.15;;;7.95;;
13981;SDS011;7065;50.880;5.502;2024-01-06T10:41:46;9.80;;;7.65;;
13981;SDS011;7065;50.880;5.502;2024-01-06T10:44:14;11.35;;;8.05;;
13981;SDS011;7065;50.880;5.502;2024-01-06T10:46:40;11.20;;;8.50;;
13981;SDS011;7065;50.880;5.502;2024-01-06T10:49:07;11.30;;;8.32;;
13981;SDS011;7065;50.880;5.502;2024-01-06T10:51:37;10.07;;;7.68;;
13981;SDS011;7065;50.880;5.502;2024-01-06T10:54:03;10.13;;;7.63;;
13981;SDS011;7065;50.880;5.502;2024-01-06T10:56:30;7.38;;;6.35;;
13981;SDS011;7065;50.880;5.502;2024-01-06T10:59:01;7.80;;;5.63;;
13981;SDS011;7065;50.880;5.502;2024-01-06T11:01:28;7.35;;;6.47;;
13981;SDS011;7065;50.880;5.502;2024-01-06T11:03:55;9.65;;;7.35;;
13981;SDS011;7065;50.880;5.502;2024-01-06T11:06:21;9.77;;;6.93;;
13981;SDS011;7065;50.880;5.502;2024-01-06T11:08:53;10.57;;;7.57;;
13981;SDS011;7065;50.880;5.502;2024-01-06T11:11:26;9.98;;;7.10;;
13981;SDS011;7065;50.880;5.502;2024-01-06T11:13:52;7.53;;;6.43;;
13981;SDS011;7065;50.880;5.502;2024-01-06T11:16:37;8.88;;;7.40;;
13981;SDS011;7065;50.880;5.502;2024-01-06T11:19:09;10.30;;;7.65;;
13981;SDS011;7065;50.880;5.502;2024-01-06T11:22:29;9.02;;;7.28;;
13981;SDS011;7065;50.880;5.502;2024-01-06T11:25:04;10.52;;;8.35;;
13981;SDS011;7065;50.880;5.502;2024-01-06T11:27:32;10.63;;;7.97;;
13981;SDS011;7065;50.880;5.502;2024-01-06T11:29:59;8.55;;;7.18;;
13981;SDS011;7065;50.880;5.502;2024-01-06T11:32:39;9.82;;;7.80;;
13981;SDS011;7065;50.880;5.502;2024-01-06T11:35:10;9.80;;;8.13;;
13981;SDS011;7065;50.880;5.502;2024-01-06T11:42:52;11.23;;;7.65;;
13981;SDS011;7065;50.880;5.502;2024-01-06T11:45:43;9.27;;;7.93;;
13981;SDS011;7065;50.880;5.502;2024-01-06T11:48:09;9.63;;;7.60;;
13981;SDS011;7065;50.880;5.502;2024-01-06T11:50:37;10.68;;;8.13;;
13981;SDS011;7065;50.880;5.502;2024-01-06T11:53:05;9.77;;;7.25;;
13981;SDS011;7065;50.880;5.502;2024-01-06T11:55:32;9.95;;;8.00;;
13981;SDS011;7065;50.880;5.502;2024-01-06T11:57:58;8.82;;;7.72;;
13981;SDS011;7065;50.880;5.502;2024-01-06T12:00:34;9.10;;;7.80;;
13981;SDS011;7065;50.880;5.502;2024-01-06T12:03:02;8.93;;;7.45;;
13981;SDS011;7065;50.880;5.502;2024-01-06T12:05:28;10.80;;;8.13;;
13981;SDS011;7065;50.880;5.502;2024-01-06T12:07:54;10.45;;;8.70;;
13981;SDS011;7065;50.880;5.502;2024-01-06T12:10:21;11.90;;;9.18;;
13981;SDS011;7065;50.880;5.502;2024-01-06T12:13:02;11.45;;;9.23;;
13981;SDS011;7065;50.880;5.502;2024-01-06T12:15:32;12.93;;;10.30;;
13981;SDS011;7065;50.880;5.502;2024-01-06T12:17:58;10.43;;;9.30;;
13981;SDS011;7065;50.880;5.502;2024-01-06T12:20:27;10.30;;;9.18;;
13981;SDS011;7065;50.880;5.502;2024-01-06T12:22:53;9.70;;;8.70;;
13981;SDS011;7065;50.880;5.502;2024-01-06T12:25:20;9.73;;;8.75;;
13981;SDS011;7065;50.880;5.502;2024-01-06T12:27:47;9.88;;;8.23;;
13981;SDS011;7065;50.880;5.502;2024-01-06T12:30:14;8.57;;;7.60;;
13981;SDS011;7065;50.880;5.502;2024-01-06T12:32:45;8.73;;;7.05;;
13981;SDS011;7065;50.880;5.502;2024-01-06T12:35:12;8.48;;;7.68;;
13981;SDS011;7065;50.880;5.502;2024-01-06T12:37:38;7.57;;;6.78;;
13981;SDS011;7065;50.880;5.502;2024-01-06T12:40:04;7.38;;;6.28;;
13981;SDS011;7065;50.880;5.502;2024-01-06T12:42:30;7.10;;;6.40;;
13981;SDS011;7065;50.880;5.502;2024-01-06T12:44:56;8.63;;;6.72;;
13981;SDS011;7065;50.880;5.502;2024-01-06T12:47:22;8.73;;;7.53;;
13981;SDS011;7065;50.880;5.502;2024-01-06T12:49:48;7.60;;;6.90;;
13981;SDS011;7065;50.880;5.502;2024-01-06T12:52:13;9.55;;;7.88;;
13981;SDS011;7065;50.880;5.502;2024-01-06T12:54:39;9.00;;;7.82;;
13981;SDS011;7065;50.880;5.502;2024-01-06T12:57:05;8.52;;;7.60;;
13981;SDS011;7065;50.880;5.502;2024-01-06T12:59:32;8.25;;;7.45;;
13981;SDS011;7065;50.880;5.502;2024-01-06T13:01:57;8.88;;;8.05;;
13981;SDS011;7065;50.880;5.502;2024-01-06T13:04:23;9.20;;;8.30;;
13981;SDS011;7065;50.880;5.502;2024-01-06T13:06:49;9.25;;;8.32;;
13981;SDS011;7065;50.880;5.502;2024-01-06T13:09:15;11.50;;;8.27;;
13981;SDS011;7065;50.880;5.502;2024-01-06T13:11:41;10.07;;;8.88;;
13981;SDS011;7065;50.880;5.502;2024-01-06T13:14:08;10.02;;;9.02;;
13981;SDS011;7065;50.880;5.502;2024-01-06T13:16:34;10.13;;;9.05;;
13981;SDS011;7065;50.880;5.502;2024-01-06T13:19:01;10.05;;;9.05;;
13981;SDS011;7065;50.880;5.502;2024-01-06T13:21:27;9.77;;;8.88;;
13981;SDS011;7065;50.880;5.502;2024-01-06T13:23:54;8.93;;;8.02;;
13981;SDS011;7065;50.880;5.502;2024-01-06T13:26:26;9.10;;;8.13;;
13981;SDS011;7065;50.880;5.502;2024-01-06T13:28:53;9.80;;;8.85;;
13981;SDS011;7065;50.880;5.502;2024-01-06T13:31:19;9.90;;;8.68;;
13981;SDS011;7065;50.880;5.502;2024-01-06T13:33:45;8.68;;;7.80;;
13981;SDS011;7065;50.880;5.502;2024-01-06T13:36:11;11.20;;;8.30;;
13981;SDS011;7065;50.880;5.502;2024-01-06T13:38:39;8.48;;;7.68;;
13981;SDS011;7065;50.880;5.502;2024-01-06T13:41:05;8.40;;;7.47;;
13981;SDS011;7065;50.880;5.502;2024-01-06T13:43:30;8.88;;;7.97;;
13981;SDS011;7065;50.880;5.502;2024-01-06T13:45:57;10.52;;;8.43;;
13981;SDS011;7065;50.880;5.502;2024-01-06T13:48:23;9.55;;;7.88;;
13981;SDS011;7065;50.880;5.502;2024-01-06T13:50:49;10.27;;;7.68;;
13981;SDS011;7065;50.880;5.502;2024-01-06T13:53:15;8.10;;;6.30;;
13981;SDS011;7065;50.880;5.502;2024-01-06T13:55:41;7.50;;;6.78;;
13981;SDS011;7065;50.880;5.502;2024-01-06T13:58:07;7.80;;;7.00;;
13981;SDS011;7065;50.880;5.502;2024-01-06T14:00:34;7.03;;;6.28;;
13981;SDS011;7065;50.880;5.502;2024-01-06T14:03:00;8.02;;;6.85;;
13981;SDS011;7065;50.880;5.502;2024-01-06T14:05:26;7.30;;;6.60;;
13981;SDS011;7065;50.880;5.502;2024-01-06T14:07:53;8.00;;;6.70;;
13981;SDS011;7065;50.880;5.502;2024-01-06T14:10:19;8.10;;;7.30;;
13981;SDS011;7065;50.880;5.502;2024-01-06T14:12:45;6.57;;;5.97;;
13981;SDS011;7065;50.880;5.502;2024-01-06T14:15:10;7.28;;;5.90;;
13981;SDS011;7065;50.880;5.502;2024-01-06T14:17:37;8.75;;;6.43;;
13981;SDS011;7065;50.880;5.502;2024-01-06T14:20:03;6.85;;;6.15;;
13981;SDS011;7065;50.880;5.502;2024-01-06T14:22:29;6.70;;;6.10;;
13981;SDS011;7065;50.880;5.502;2024-01-06T14:24:56;7.47;;;6.70;;
13981;SDS011;7065;50.880;5.502;2024-01-06T14:27:21;6.65;;;5.88;;
13981;SDS011;7065;50.880;5.502;2024-01-06T14:29:47;7.32;;;6.53;;
13981;SDS011;7065;50.880;5.502;2024-01-06T14:32:13;8.32;;;6.07;;
13981;SDS011;7065;50.880;5.502;2024-01-06T14:34:39;8.60;;;6.43;;
13981;SDS011;7065;50.880;5.502;2024-01-06T14:37:05;9.77;;;6.70;;
13981;SDS011;7065;50.880;5.502;2024-01-06T14:39:31;7.78;;;6.63;;
13981;SDS011;7065;50.880;5.502;2024-01-06T14:41:57;7.03;;;6.30;;
13981;SDS011;7065;50.880;5.502;2024-01-06T14:44:22;7.80;;;7.03;;